createdAt,value
2022-08-24T00:05:34.889Z,21.66
2022-08-24T00:15:42.026Z,21.11
2022-08-24T00:25:48.419Z,21.34
2022-08-24T00:35:54.740Z,21.32
2022-08-24T00:46:18.195Z,21.71
2022-08-24T00:56:34.240Z,22.01
2022-08-24T01:06:40.682Z,22.06
2022-08-24T01:17:05.361Z,22.15
2022-08-24T01:27:11.863Z,22.23
2022-08-24T01:37:18.594Z,22.31
2022-08-24T01:47:24.954Z,22.27
2022-08-24T01:57:31.447Z,22.17
2022-08-24T02:07:37.776Z,22.01
2022-08-24T02:17:43.627Z,22.07
2022-08-24T02:27:49.915Z,22.09
2022-08-24T02:37:56.634Z,21.96
2022-08-24T02:48:03.008Z,22.00
2022-08-24T02:58:10.601Z,22.04
2022-08-24T03:08:16.926Z,22.26
2022-08-24T03:18:24.792Z,22.08
2022-08-24T03:28:31.242Z,22.07
2022-08-24T03:38:37.889Z,22.13
2022-08-24T03:48:45.538Z,22.05
2022-08-24T03:58:53.045Z,22.14
2022-08-24T04:08:59.377Z,22.17
2022-08-24T04:19:06.051Z,22.16
2022-08-24T04:29:13.602Z,22.08
2022-08-24T04:39:19.948Z,22.06
2022-08-24T04:49:26.857Z,22.16
2022-08-24T04:59:33.184Z,22.19
2022-08-24T05:09:39.468Z,22.32
2022-08-24T05:19:45.841Z,22.31
2022-08-24T05:29:54.811Z,22.34
2022-08-24T05:40:03.317Z,22.43
2022-08-24T05:50:10.068Z,22.55
2022-08-24T06:00:16.779Z,21.87
2022-08-24T06:10:38.263Z,20.76
2022-08-24T06:20:44.722Z,20.52
2022-08-24T06:30:52.631Z,20.65
2022-08-24T06:40:59.089Z,20.74
2022-08-24T06:51:11.593Z,20.80
2022-08-24T07:01:24.545Z,20.73
2022-08-24T07:11:31.079Z,20.95
2022-08-24T07:21:38.136Z,20.96
2022-08-24T07:31:45.135Z,20.94
2022-08-24T07:42:11.666Z,21.13
2022-08-24T07:52:17.883Z,21.42
2022-08-24T08:02:25.262Z,21.97
2022-08-24T08:12:36.459Z,22.09
2022-08-24T08:23:01.348Z,22.28
2022-08-24T08:33:08.291Z,22.31
2022-08-24T08:43:45.341Z,22.63
2022-08-24T08:54:29.204Z,22.99
2022-08-24T09:05:10.578Z,22.81
2022-08-24T09:15:57.605Z,22.93
2022-08-24T09:26:28.137Z,22.74
2022-08-24T09:36:46.503Z,23.57
2022-08-24T09:47:11.501Z,23.89
2022-08-24T09:57:50.409Z,24.19
2022-08-24T10:08:23.058Z,24.65
2022-08-24T10:18:44.142Z,24.76
2022-08-24T10:28:50.479Z,24.72
2022-08-24T10:39:37.200Z,24.71
2022-08-24T10:50:03.643Z,25.29
2022-08-24T11:00:23.337Z,25.30
2022-08-24T11:10:33.827Z,25.54
2022-08-24T11:20:45.780Z,25.77
2022-08-24T11:30:52.127Z,26.16
2022-08-24T11:41:07.656Z,26.47
2022-08-24T11:51:23.224Z,27.30
2022-08-24T12:01:49.475Z,28.40
2022-08-24T12:12:05.492Z,29.11
2022-08-24T12:22:13.820Z,28.93
2022-08-24T12:32:28.308Z,28.38
2022-08-24T12:42:52.155Z,28.05
2022-08-24T12:53:20.063Z,29.27
2022-08-24T13:03:33.366Z,29.38
2022-08-24T13:14:07.527Z,28.99
2022-08-24T13:24:33.261Z,29.31
2022-08-24T13:34:43.416Z,29.69
2022-08-24T13:45:24.214Z,29.13
2022-08-24T13:55:39.310Z,29.51
2022-08-24T14:05:58.328Z,29.21
2022-08-24T14:16:44.708Z,29.05
2022-08-24T14:27:03.661Z,29.01
2022-08-24T14:37:16.013Z,28.14
2022-08-24T14:47:32.279Z,28.10
2022-08-24T14:58:16.850Z,28.18
2022-08-24T15:08:33.944Z,27.87
2022-08-24T15:19:02.452Z,27.46
2022-08-24T15:29:17.865Z,27.39
2022-08-24T15:39:28.377Z,26.99
2022-08-24T15:49:40.783Z,26.60
2022-08-24T15:59:49.698Z,26.53
2022-08-24T16:10:10.542Z,26.34
2022-08-24T16:20:26.137Z,26.23
2022-08-24T16:30:53.808Z,26.15
2022-08-24T16:41:02.523Z,26.00
2022-08-24T16:51:09.344Z,25.88
2022-08-24T17:01:16.958Z,25.73
2022-08-24T17:11:23.460Z,25.55
2022-08-24T17:21:29.944Z,25.45
2022-08-24T17:31:37.007Z,25.32
2022-08-24T17:41:43.395Z,24.98
2022-08-24T17:51:50.831Z,24.95
2022-08-24T18:02:01.581Z,24.80
2022-08-24T18:12:09.674Z,24.67
2022-08-24T18:22:17.024Z,24.47
2022-08-24T18:32:26.804Z,23.94
2022-08-24T18:42:38.020Z,23.86
2022-08-24T18:52:44.360Z,23.66
2022-08-24T19:02:51.544Z,23.84
2022-08-24T19:13:01.064Z,23.85
2022-08-24T19:23:15.169Z,23.72
2022-08-24T19:33:26.079Z,23.69
2022-08-24T19:43:32.866Z,23.60
2022-08-24T19:53:39.899Z,23.51
2022-08-24T20:03:46.285Z,23.34
2022-08-24T20:13:52.703Z,23.30
2022-08-24T20:24:03.051Z,23.21
2022-08-24T20:34:09.395Z,23.02
2022-08-24T20:44:15.889Z,23.00
2022-08-24T20:54:22.189Z,22.92
2022-08-24T21:04:28.789Z,22.79
2022-08-24T21:14:35.577Z,22.66
2022-08-24T21:24:41.955Z,22.74
2022-08-24T21:34:48.391Z,22.63
2022-08-24T21:44:54.709Z,22.49
2022-08-24T21:55:01.060Z,22.54
2022-08-24T22:05:07.877Z,22.46
2022-08-24T22:15:17.174Z,22.40
2022-08-24T22:25:30.898Z,22.35
2022-08-24T22:35:45.128Z,22.33
2022-08-24T22:45:52.304Z,22.31
2022-08-24T22:56:00.706Z,22.25
2022-08-24T23:06:07.338Z,22.17
2022-08-24T23:16:14.572Z,22.13
2022-08-24T23:26:21.647Z,22.09
2022-08-24T23:36:29.354Z,22.10
2022-08-24T23:46:35.727Z,22.02
2022-08-24T23:56:45.065Z,22.02
